Flight Track Log - Related Links

Times and Time Zones

All times are in EDT time to prevent confusion due to time zone crossing. See the N910WW flight status page for this flight to view local times or setup timezone preferences in your user account.

Time Position Orientation Groundspeed Altitude Reporting Facility
EDT Latitude Longitude Course Direction KTS MPH feet Rate Location/Type
Fri 03:26:46 PM 36.8992 -76.1997 39° Northeast 119 137 500  Level Washington Center
Fri 03:27:40 PM 36.9244 -76.1739 39° Northeast 135 155 1,600 1,190 Climbing Washington Center
Fri 03:28:42 PM 36.9600 -76.1456 32° Northeast 135 155 2,800 1,082 Climbing Washington Center
Fri 03:29:42 PM 36.9933 -76.1511 352° North 157 181 3,800 1,068 Climbing Washington Center
Fri 03:30:40 PM 36.9806 -76.1925 249° West 139 160 4,900 966 Climbing Washington Center
Fri 03:31:40 PM 36.9722 -76.2417 258° West 150 173 5,700 793 Climbing Washington Center
Fri 03:32:41 PM 36.9633 -76.2964 259° West 150 173 6,500 793 Climbing Washington Center
Fri 03:33:41 PM 36.9506 -76.3456 252° West 150 173 7,300 750 Climbing Washington Center
Fri 03:34:41 PM 36.9400 -76.3975 256° West 159 183 8,000 505 Climbing Washington Center
Fri 03:35:16 PM 36.9292 -76.4233 242° Southwest 176 203 8,100 63 Climbing Washington Center
Fri 03:36:17 PM 36.9058 -76.4828 244° Southwest 194 223 8,100  Level Washington Center
Fri 03:37:17 PM 36.8825 -76.5500 247° West 202 232 8,100  Level Washington Center
Fri 03:38:18 PM 36.8569 -76.6172 245° Southwest 203 234 8,100  Level Washington Center
Fri 03:39:42 PM 36.8269 -76.7000 246° West 210 242 8,100  Level Washington Center
Fri 03:40:41 PM 36.8053 -76.7669 248° West 210 242 8,100  Level Washington Center
Fri 03:41:42 PM 36.7797 -76.8289 243° Southwest 210 242 8,100  Level Washington Center
Fri 03:42:42 PM 36.7561 -76.8958 246° West 210 242 8,100  Level Washington Center
Fri 03:43:41 PM 36.7283 -76.9550 240° Southwest 210 242 8,100  Level Washington Center
Fri 03:44:42 PM 36.6881 -77.0036 224° Southwest 210 242 8,100  Level Washington Center
Fri 03:45:42 PM 36.6622 -77.0653 242° Southwest 205 236 8,100  Level Washington Center
Fri 03:46:40 PM 36.6261 -77.1189 230° Southwest 205 236 8,100  Level Washington Center
Fri 03:47:41 PM 36.5942 -77.1753 235° Southwest 205 236 8,100  Level Washington Center
Fri 03:48:42 PM 36.5581 -77.2261 229° Southwest 205 236 8,100  Level Washington Center
Fri 03:49:40 PM 36.5158 -77.2564 210° Southwest 200 230 8,100  Level Washington Center
Fri 03:50:41 PM 36.4817 -77.3125 233° Southwest 200 230 8,100  Level Washington Center
Fri 03:51:42 PM 36.4497 -77.3658 233° Southwest 205 236 8,100  Level Washington Center
Fri 03:52:42 PM 36.4175 -77.4244 236° Southwest 205 236 8,100  Level Washington Center
Fri 03:53:42 PM 36.3811 -77.4856 234° Southwest 205 236 8,100 203 Level Washington Center
Fri 03:54:40 PM 36.3511 -77.5392 235° Southwest 205 236 8,500 555 Climbing Washington Center
Fri 03:55:41 PM 36.3208 -77.5897 233° Southwest 199 229 9,200 645 Climbing Washington Center
Fri 03:56:41 PM 36.2931 -77.6331 232° Southwest 180 207 9,800 446 Climbing Washington Center
Fri 03:57:42 PM 36.2672 -77.6814 236° Southwest 173 199 10,100 148 Climbing Washington Center
Fri 03:58:43 PM 36.2350 -77.7319 232° Southwest 179 206 10,100  Level Washington Center
Fri 03:59:40 PM 36.2028 -77.7878 234° Southwest 190 219 10,100  Level Washington Center
Fri 04:00:40 PM 36.1725 -77.8433 236° Southwest 190 219 10,100  Level Washington Center
Fri 04:01:41 PM 36.1400 -77.8992 234° Southwest 195 224 10,100  Level Washington Center
Fri 04:02:42 PM 36.1078 -77.9522 233° Southwest 195 224 10,100  Level Washington Center
Fri 04:03:16 PM 36.0842 -77.9822 226° Southwest 197 227 10,100  Level Washington Center
Fri 04:04:29 PM 36.0494 -78.0506 238° Southwest 194 223 10,100  Level Washington Center
Fri 04:05:36 PM 36.0106 -78.1111 232° Southwest 196 226 10,100  Level Washington Center
Fri 04:06:40 PM 35.9781 -78.1689 235° Southwest 201 231 10,100  Level Washington Center
Fri 04:06:40 PM 35.9781 -78.1689 235° Southwest 197 227 10,100  Level Washington Center
Fri 04:07:40 PM 35.9478 -78.2167 232° Southwest 201 231 10,100  Level Washington Center
Fri 04:08:41 PM 35.9131 -78.2797 236° Southwest 201 231 10,100  Level Washington Center
Fri 04:09:41 PM 35.8828 -78.3247 230° Southwest 201 231 10,100  Level Washington Center
Fri 04:10:39 PM 35.8481 -78.3800 232° Southwest 198 228 10,100  Level Washington Center
Fri 04:11:40 PM 35.8156 -78.4403 236° Southwest 201 231 10,100  Level Washington Center
Fri 04:12:41 PM 35.7828 -78.4931 233° Southwest 201 231 10,100  Level Washington Center
Fri 04:13:51 PM 35.7439 -78.5556 233° Southwest 194 223 10,100  Level Washington Center
Fri 04:14:28 PM 35.7242 -78.5906 235° Southwest 193 222 10,100 -71 Level Washington Center
Fri 04:15:16 PM 35.6981 -78.6331 233° Southwest 195 224 10,000 -496 Descending Washington Center
Fri 04:16:29 PM 35.6544 -78.7056 234° Southwest 213 245 9,100 -740 Descending Washington Center
Fri 04:18:00 PM 35.6129 -78.7776 235° Southwest  Level FlightAware Approximate
Fri 04:25:00 PM 35.4153 -79.1021 232° Southwest  Level FlightAware Approximate
Fri 04:26:00 PM 35.3861 -79.1477 232° Southwest  Level FlightAware Approximate
Fri 04:27:00 PM 35.3568 -79.1933 232° Southwest  Level FlightAware Approximate
Fri 04:28:00 PM 35.3275 -79.2388 232° Southwest  Level FlightAware Approximate
Fri 04:29:00 PM 35.2982 -79.2844 232° Southwest  Level FlightAware Approximate

Login

Don't have an account? Register now (free) for customized features, flight alerts, and more!